Time;durP1;ratioP1;P1;durP2;ratioP2;P2;SDS_P1;SDS_P2;PMS_P1;PMS_P2;Temp;Humidity;BMP_temperature;BMP_pressure;BME280_temperature;BME280_humidity;BME280_pressure;Samples;Min_cycle;Max_cycle;Signal;HPM_P1;HPM_P2
2022/04/04 00:00:24;;;;;;;8.45;3.97;;;;;;;-2.53;100.00;97474.53;5111848;28;20082;-59
2022/04/04 00:02:50;;;;;;;7.47;3.83;;;;;;;-2.55;100.00;97466.81;5111871;28;20058;-58
2022/04/04 00:05:17;;;;;;;7.97;4.43;;;;;;;-2.56;100.00;97470.63;5111608;28;20104;-58
2022/04/04 00:07:44;;;;;;;10.35;4.07;;;;;;;-2.60;100.00;97469.66;5111692;28;20043;-59
2022/04/04 00:10:10;;;;;;;7.22;3.67;;;;;;;-2.61;100.00;97468.09;5111561;28;20409;-58
2022/04/04 00:12:36;;;;;;;7.07;4.07;;;;;;;-2.56;100.00;97464.47;5111648;28;20414;-59
2022/04/04 00:15:03;;;;;;;7.88;4.25;;;;;;;-2.57;100.00;97478.97;5110763;28;20058;-58
2022/04/04 00:17:29;;;;;;;5.88;3.92;;;;;;;-2.62;100.00;97474.59;5111518;28;20058;-59
2022/04/04 00:19:55;;;;;;;7.38;4.78;;;;;;;-2.64;100.00;97472.22;5111020;28;20060;-58
2022/04/04 00:22:22;;;;;;;6.60;3.55;;;;;;;-2.60;100.00;97472.34;5102934;28;20480;-58
2022/04/04 00:24:48;;;;;;;6.80;3.90;;;;;;;-2.63;100.00;97462.28;5111376;28;20048;-59
2022/04/04 00:27:14;;;;;;;6.53;3.22;;;;;;;-2.66;100.00;97469.06;5111311;28;20361;-58
2022/04/04 00:29:40;;;;;;;11.52;3.95;;;;;;;-2.67;100.00;97472.06;5111261;28;20055;-58
2022/04/04 00:32:08;;;;;;;6.07;3.67;;;;;;;-2.66;100.00;97474.44;5111269;28;20044;-58
2022/04/04 00:34:34;;;;;;;9.20;3.95;;;;;;;-2.64;100.00;97477.56;5111300;28;20484;-58
2022/04/04 00:37:00;;;;;;;9.98;4.55;;;;;;;-2.64;100.00;97484.84;5110628;28;20047;-58
2022/04/04 00:39:27;;;;;;;7.18;3.83;;;;;;;-2.66;100.00;97487.06;5111455;28;20185;-59
2022/04/04 00:41:53;;;;;;;6.72;3.60;;;;;;;-2.67;100.00;97496.19;5111123;28;20058;-58
2022/04/04 00:44:19;;;;;;;5.00;3.78;;;;;;;-2.71;100.00;97484.53;5111296;28;20047;-59
2022/04/04 00:46:45;;;;;;;7.32;4.22;;;;;;;-2.71;100.00;97477.28;5110859;28;20047;-59
2022/04/04 00:49:12;;;;;;;7.05;4.15;;;;;;;-2.67;100.00;97478.22;5110826;28;20051;-59
2022/04/04 00:51:38;;;;;;;8.60;3.78;;;;;;;-2.68;100.00;97479.31;5110407;28;20051;-58
2022/04/04 00:54:05;;;;;;;7.68;3.55;;;;;;;-2.61;100.00;97476.94;5110546;28;20498;-58
2022/04/04 00:56:33;;;;;;;8.05;4.38;;;;;;;-2.53;100.00;97477.22;5111063;28;20055;-58
2022/04/04 00:59:00;;;;;;;6.90;4.05;;;;;;;-2.48;100.00;97485.91;5110437;28;20047;-59
2022/04/04 01:01:26;;;;;;;5.10;3.33;;;;;;;-2.43;100.00;97490.31;5110673;28;20051;-58
2022/04/04 01:03:52;;;;;;;8.23;3.55;;;;;;;-2.38;100.00;97485.56;5110431;28;20055;-58
2022/04/04 01:06:18;;;;;;;5.28;3.50;;;;;;;-2.30;100.00;97485.84;5110722;28;20073;-59
2022/04/04 01:08:45;;;;;;;8.07;3.40;;;;;;;-2.30;100.00;97493.91;5110439;28;20052;-59
2022/04/04 01:11:11;;;;;;;5.43;3.35;;;;;;;-2.21;100.00;97497.34;5110492;28;20105;-59
2022/04/04 01:13:44;;;;;;;5.85;3.50;;;;;;;-2.12;100.00;97503.47;5110253;28;20051;-59
2022/04/04 01:16:10;;;;;;;7.65;3.60;;;;;;;-2.06;100.00;97499.50;5110344;28;20149;-59
2022/04/04 01:18:36;;;;;;;7.00;3.85;;;;;;;-2.06;100.00;97488.75;5110097;28;20048;-58
2022/04/04 01:21:02;;;;;;;9.65;3.67;;;;;;;-1.97;100.00;97492.16;5110499;28;20059;-59
2022/04/04 01:23:35;;;;;;;3.80;2.95;;;;;;;-1.90;100.00;97489.78;5110457;28;20051;-59
2022/04/04 01:26:02;;;;;;;8.23;3.50;;;;;;;-1.81;100.00;97486.25;5110178;28;20048;-59
2022/04/04 01:28:28;;;;;;;5.78;3.33;;;;;;;-1.69;100.00;97489.81;5110274;28;20055;-59
2022/04/04 01:30:54;;;;;;;5.07;3.25;;;;;;;-1.62;100.00;97481.25;5110248;28;20056;-59
2022/04/04 01:33:21;;;;;;;7.85;3.30;;;;;;;-1.53;100.00;97482.00;5109807;28;20059;-59
2022/04/04 01:35:47;;;;;;;9.13;3.90;;;;;;;-1.45;100.00;97473.06;5110224;28;20047;-59
2022/04/04 01:38:13;;;;;;;5.15;3.40;;;;;;;-1.38;100.00;97471.75;5109905;28;20059;-59
2022/04/04 01:40:39;;;;;;;9.23;4.15;;;;;;;-1.35;100.00;97477.28;5110099;28;20055;-58
2022/04/04 01:43:06;;;;;;;4.35;3.00;;;;;;;-1.27;100.00;97476.41;5110043;28;20054;-59
2022/04/04 01:48:17;;;;;;;4.82;3.17;;;;;;;-1.18;100.00;97470.97;5110129;28;20568;-59
2022/04/04 01:50:43;;;;;;;9.35;3.53;;;;;;;-1.12;100.00;97455.44;5110151;28;20059;-58
2022/04/04 01:56:00;;;;;;;6.20;3.58;;;;;;;-1.03;100.00;97448.84;5088846;28;20048;-58
2022/04/04 01:58:28;;;;;;;4.47;2.90;;;;;;;-1.04;100.00;97449.97;5109749;28;20525;-59
2022/04/04 02:00:56;;;;;;;5.63;3.53;;;;;;;-1.05;100.00;97453.78;5110055;28;20058;-59
2022/04/04 02:03:23;;;;;;;4.63;3.25;;;;;;;-1.05;100.00;97450.31;5109585;28;20043;-58
2022/04/04 02:05:50;;;;;;;7.80;3.28;;;;;;;-1.09;100.00;97455.56;5109893;28;20503;-59
2022/04/04 02:08:16;;;;;;;8.38;3.58;;;;;;;-1.15;100.00;97458.78;5109700;28;20052;-59
2022/04/04 02:10:42;;;;;;;6.00;3.65;;;;;;;-1.24;100.00;97458.84;5109261;28;20418;-59
2022/04/04 02:13:08;;;;;;;4.53;3.45;;;;;;;-1.34;100.00;97453.84;5109848;28;20048;-59
2022/04/04 02:15:35;;;;;;;5.10;3.30;;;;;;;-1.43;100.00;97440.50;5109332;28;20067;-59
2022/04/04 02:18:02;;;;;;;4.38;2.85;;;;;;;-1.46;100.00;97441.16;5109927;28;20134;-59
2022/04/04 02:20:28;;;;;;;4.63;3.13;;;;;;;-1.49;100.00;97444.50;5109320;28;20044;-59
2022/04/04 02:22:54;;;;;;;10.63;3.40;;;;;;;-1.51;100.00;97449.41;5109832;28;20074;-59
2022/04/04 02:25:20;;;;;;;5.80;3.47;;;;;;;-1.53;100.00;97457.81;5109340;28;20048;-58
2022/04/04 02:27:46;;;;;;;5.32;3.40;;;;;;;-1.49;100.00;97452.56;5109417;28;20083;-59
2022/04/04 02:30:13;;;;;;;8.05;3.25;;;;;;;-1.46;100.00;97441.94;5109407;28;20059;-59
2022/04/04 02:32:41;;;;;;;7.97;3.40;;;;;;;-1.41;100.00;97440.94;5109341;28;20048;-58
2022/04/04 02:35:08;;;;;;;5.20;3.10;;;;;;;-1.36;100.00;97450.72;5109139;28;20059;-59
2022/04/04 02:37:34;;;;;;;4.07;3.08;;;;;;;-1.31;100.00;97453.97;5108783;28;20149;-58
2022/04/04 02:40:01;;;;;;;4.75;2.90;;;;;;;-1.26;100.00;97447.63;5109297;28;20062;-58
2022/04/04 02:42:27;;;;;;;6.00;3.05;;;;;;;-1.21;100.00;97450.91;5109227;28;20051;-58
2022/04/04 02:44:54;;;;;;;6.85;3.20;;;;;;;-1.15;100.00;97446.13;5110475;28;20502;-59
2022/04/04 02:47:20;;;;;;;5.30;3.05;;;;;;;-1.08;100.00;97459.81;5112628;28;20518;-59
2022/04/04 02:49:47;;;;;;;9.05;3.35;;;;;;;-1.02;100.00;97447.72;5113010;28;20048;-59
2022/04/04 02:52:14;;;;;;;4.30;2.85;;;;;;;-0.99;100.00;97447.06;5112426;28;20066;-59
2022/04/04 02:54:40;;;;;;;7.90;3.13;;;;;;;-0.91;100.00;97448.09;5112787;28;20048;-59
2022/04/04 02:57:06;;;;;;;5.90;3.38;;;;;;;-0.87;100.00;97448.22;5112511;28;20052;-59
2022/04/04 02:59:32;;;;;;;7.28;2.80;;;;;;;-0.82;100.00;97456.09;5112629;28;20197;-59
2022/04/04 03:01:58;;;;;;;4.82;3.13;;;;;;;-0.79;100.00;97453.53;5112388;28;20544;-59
2022/04/04 03:04:24;;;;;;;12.60;3.60;;;;;;;-0.78;100.00;97454.31;5112376;28;20059;-58
2022/04/04 03:06:51;;;;;;;5.78;3.33;;;;;;;-0.75;100.00;97445.56;5112324;28;20495;-59
2022/04/04 03:09:17;;;;;;;4.97;3.05;;;;;;;-0.73;100.00;97451.44;5112504;28;20051;-58
2022/04/04 03:11:43;;;;;;;5.00;3.60;;;;;;;-0.78;100.00;97457.00;5112222;28;20048;-58
2022/04/04 03:14:10;;;;;;;4.75;3.13;;;;;;;-0.82;100.00;97448.03;5112283;28;20051;-58
2022/04/04 03:16:36;;;;;;;7.32;2.88;;;;;;;-0.80;100.00;97443.91;5112774;28;20058;-59
2022/04/04 03:19:03;;;;;;;8.07;3.47;;;;;;;-0.75;100.00;97457.13;5112325;28;20055;-59
2022/04/04 03:21:29;;;;;;;5.47;2.92;;;;;;;-0.71;100.00;97459.94;5112585;28;20445;-59
2022/04/04 03:23:56;;;;;;;5.28;2.92;;;;;;;-0.74;100.00;97472.13;5112007;28;20056;-59
2022/04/04 03:26:23;;;;;;;8.55;2.92;;;;;;;-0.77;100.00;97474.72;5112254;28;20043;-59
2022/04/04 03:28:49;;;;;;;5.60;3.28;;;;;;;-0.74;100.00;97479.44;5111972;28;20074;-59
2022/04/04 03:31:15;;;;;;;4.72;3.10;;;;;;;-0.71;100.00;97476.09;5112006;28;20443;-59
2022/04/04 03:33:43;;;;;;;8.50;3.35;;;;;;;-0.68;100.00;97463.88;5111819;28;20043;-58
2022/04/04 03:36:10;;;;;;;7.05;3.10;;;;;;;-0.72;100.00;97469.91;5111892;28;20052;-59
2022/04/04 03:38:36;;;;;;;12.07;3.90;;;;;;;-0.74;100.00;97460.59;5111524;28;20047;-58
2022/04/04 03:41:03;;;;;;;8.50;3.20;;;;;;;-0.71;100.00;97466.09;5111796;28;20563;-59
2022/04/04 03:43:29;;;;;;;7.03;3.00;;;;;;;-0.65;100.00;97466.69;5112075;28;20055;-59
2022/04/04 03:45:56;;;;;;;5.50;3.05;;;;;;;-0.64;100.00;97465.56;5111736;28;20116;-59
2022/04/04 03:48:22;;;;;;;5.97;3.00;;;;;;;-0.61;100.00;97462.19;5103789;28;20047;-59
2022/04/04 03:50:51;;;;;;;5.35;2.80;;;;;;;-0.53;100.00;97463.25;5111543;28;20552;-59
2022/04/04 03:53:18;;;;;;;4.47;2.70;;;;;;;-0.44;100.00;97465.81;5111942;28;20062;-59
2022/04/04 03:55:44;;;;;;;4.53;3.20;;;;;;;-0.42;100.00;97472.47;5110804;28;20093;-59
2022/04/04 03:58:11;;;;;;;6.30;2.63;;;;;;;-0.42;100.00;97469.75;5111597;28;20047;-59
2022/04/04 04:00:38;;;;;;;6.57;2.92;;;;;;;-0.38;100.00;97470.66;5111355;28;20051;-58
2022/04/04 04:03:05;;;;;;;4.35;2.70;;;;;;;-0.32;100.00;97463.16;5111355;28;20052;-59
2022/04/04 04:05:32;;;;;;;6.05;2.85;;;;;;;-0.31;100.00;97457.44;5111354;28;20064;-58
2022/04/04 04:07:58;;;;;;;8.70;3.40;;;;;;;-0.26;100.00;97456.44;5111267;28;20621;-59
2022/04/04 04:10:24;;;;;;;4.47;2.33;;;;;;;-0.24;100.00;97452.28;5111690;28;20517;-59
2022/04/04 04:12:51;;;;;;;4.03;2.50;;;;;;;-0.19;100.00;97464.75;5111141;28;20043;-59
2022/04/04 04:15:20;;;;;;;7.20;2.67;;;;;;;-0.12;100.00;97456.13;5111367;28;20071;-59
2022/04/04 04:17:46;;;;;;;4.50;2.40;;;;;;;-0.14;100.00;97455.66;5111026;28;20050;-59
2022/04/04 04:20:26;;;;;;;5.20;2.38;;;;;;;-0.18;100.00;97458.25;5111496;28;20048;-59
2022/04/04 04:22:54;;;;;;;5.13;2.30;;;;;;;-0.11;100.00;97460.38;5111148;28;20108;-59
2022/04/04 04:25:22;;;;;;;4.50;2.80;;;;;;;0.01;100.00;97465.00;5111114;28;20051;-59
2022/04/04 04:27:49;;;;;;;4.72;2.60;;;;;;;0.08;100.00;97471.38;5111187;28;20055;-59
2022/04/04 04:30:16;;;;;;;7.82;3.08;;;;;;;0.18;100.00;97480.94;5110730;28;20051;-59
2022/04/04 04:32:44;;;;;;;14.98;3.15;;;;;;;0.25;100.00;97486.53;5110889;28;20502;-59
2022/04/04 04:35:11;;;;;;;16.67;2.47;;;;;;;0.30;100.00;97488.19;5110914;28;20469;-59
2022/04/04 04:37:38;;;;;;;5.68;2.70;;;;;;;0.33;100.00;97482.91;5110243;28;20414;-59
2022/04/04 04:40:06;;;;;;;13.05;3.35;;;;;;;0.36;100.00;97478.78;5110612;28;20059;-59
2022/04/04 04:42:33;;;;;;;17.35;2.67;;;;;;;0.35;100.00;97488.00;5110931;28;20141;-59
2022/04/04 04:45:00;;;;;;;4.43;2.25;;;;;;;0.42;100.00;97485.50;5110666;28;20069;-59
2022/04/04 04:47:26;;;;;;;3.33;2.58;;;;;;;0.46;100.00;97489.09;5110770;28;20085;-59
2022/04/04 04:49:53;;;;;;;12.10;3.20;;;;;;;0.54;100.00;97498.97;5110442;28;20422;-59
2022/04/04 04:52:19;;;;;;;11.13;4.20;;;;;;;0.60;100.00;97494.13;5110487;28;20050;-59
2022/04/04 04:54:45;;;;;;;15.40;3.10;;;;;;;0.67;100.00;97497.06;5110460;28;20047;-59
2022/04/04 04:57:11;;;;;;;10.80;2.63;;;;;;;0.76;100.00;97499.59;5110260;28;20047;-59
2022/04/04 04:59:38;;;;;;;6.10;2.55;;;;;;;0.86;100.00;97499.13;5110757;28;20070;-59
2022/04/04 05:02:04;;;;;;;5.38;2.65;;;;;;;0.94;100.00;97500.91;5110282;28;20104;-58
2022/04/04 05:04:31;;;;;;;23.85;3.25;;;;;;;1.02;100.00;97493.81;5111556;28;20051;-58
2022/04/04 05:06:58;;;;;;;5.00;2.38;;;;;;;1.06;100.00;97498.16;5109073;28;20097;-59
2022/04/04 05:09:24;;;;;;;7.78;2.88;;;;;;;1.14;100.00;97499.16;5109964;28;20047;-58
2022/04/04 05:11:50;;;;;;;5.60;2.72;;;;;;;1.23;100.00;97497.09;5110014;28;20502;-59
2022/04/04 05:14:16;;;;;;;4.95;2.22;;;;;;;1.32;100.00;97497.72;5111756;27;20426;-51
2022/04/04 05:16:43;;;;;;;7.43;2.42;;;;;;;1.69;100.00;97496.75;5119554;28;20047;-60
2022/04/04 05:19:10;;;;;;;17.75;3.22;;;;;;;3.07;100.00;97520.06;5119397;28;20051;-63
2022/04/04 05:21:36;;;;;;;6.68;2.30;;;;;;;4.08;100.00;97479.34;5124191;27;20050;-57
2022/04/04 05:24:04;;;;;;;3.10;2.35;;;;;;;4.84;100.00;97503.72;5117338;27;20456;-53
2022/04/04 05:26:30;;;;;;;6.00;2.97;;;;;;;5.80;100.00;97523.13;5125724;27;20047;-58
2022/04/04 05:28:57;;;;;;;6.07;3.22;;;;;;;6.71;100.00;97627.00;5151398;27;20551;-55
2022/04/04 05:31:23;;;;;;;7.78;3.42;;;;;;;7.56;100.00;97670.41;5151309;27;20047;-57
2022/04/04 05:33:50;;;;;;;15.65;3.20;;;;;;;8.65;100.00;97746.94;5148772;27;20047;-58
2022/04/04 05:36:17;;;;;;;13.10;4.38;;;;;;;8.86;100.00;97812.59;5113598;27;20055;-54
2022/04/04 05:38:43;;;;;;;11.15;3.05;;;;;;;8.90;100.00;97843.44;5113376;27;20052;-58
2022/04/04 05:41:10;;;;;;;18.05;4.22;;;;;;;9.09;100.00;97833.31;5146849;27;20051;-59
2022/04/04 05:43:36;;;;;;;5.32;3.15;;;;;;;9.50;100.00;97857.63;5110302;28;20050;-57
2022/04/04 05:46:02;;;;;;;15.65;4.63;;;;;;;10.04;100.00;97872.88;5110042;28;20052;-59
2022/04/04 05:48:30;;;;;;;7.43;3.60;;;;;;;9.86;100.00;97892.06;5109954;28;20047;-61
2022/04/04 05:50:56;;;;;;;7.90;3.38;;;;;;;9.55;100.00;97881.84;5119194;28;20050;-62
2022/04/04 05:53:23;;;;;;;9.18;2.92;;;;;;;8.90;100.00;97870.75;5131557;27;20104;-62
2022/04/04 05:55:49;;;;;;;8.70;3.75;;;;;;;8.60;100.00;97837.47;5128195;27;20054;-59
2022/04/04 05:58:16;;;;;;;11.93;3.25;;;;;;;8.61;100.00;97833.56;5128540;28;20128;-61
2022/04/04 06:00:42;;;;;;;6.53;3.17;;;;;;;8.32;100.00;97819.72;5130302;28;20055;-60
2022/04/04 06:03:08;;;;;;;7.60;3.63;;;;;;;8.46;100.00;97792.53;5129982;28;20054;-61
2022/04/04 06:05:35;;;;;;;4.75;3.03;;;;;;;9.82;100.00;97806.41;5125185;27;20066;-62
2022/04/04 06:08:01;;;;;;;7.55;3.38;;;;;;;10.21;100.00;97852.13;5126856;28;20051;-57
2022/04/04 06:10:28;;;;;;;4.97;3.03;;;;;;;10.06;100.00;97875.22;5129213;28;20403;-55
2022/04/04 06:12:54;;;;;;;7.07;3.00;;;;;;;9.41;100.00;97858.78;5128264;28;20050;-56
2022/04/04 06:15:21;;;;;;;8.55;2.83;;;;;;;8.61;100.00;97841.75;5129782;28;20502;-59
2022/04/04 06:17:47;;;;;;;8.25;3.28;;;;;;;8.41;100.00;97803.81;5129764;27;20043;-57
2022/04/04 06:20:13;;;;;;;9.98;2.85;;;;;;;8.39;100.00;97778.84;5132926;28;20092;-57
2022/04/04 06:22:40;;;;;;;11.80;4.88;;;;;;;9.42;100.00;97782.97;5113204;28;20058;-55
2022/04/04 06:25:08;;;;;;;7.05;3.28;;;;;;;9.43;100.00;97825.56;5112657;28;20101;-54
2022/04/04 06:27:35;;;;;;;6.88;3.50;;;;;;;9.15;100.00;97824.34;5120019;28;20055;-56
2022/04/04 06:30:01;;;;;;;40.38;13.80;;;;;;;9.73;100.00;97814.25;5128362;28;20510;-55
2022/04/04 06:32:28;;;;;;;9.15;3.70;;;;;;;10.85;100.00;97834.72;5120565;28;20050;-55
2022/04/04 06:34:54;;;;;;;6.85;2.90;;;;;;;11.08;100.00;97897.28;5132979;28;20066;-58
2022/04/04 06:37:20;;;;;;;6.10;3.08;;;;;;;10.74;100.00;97908.00;5132648;28;20092;-53
2022/04/04 06:39:46;;;;;;;8.52;3.60;;;;;;;11.10;100.00;97911.41;5133186;28;20055;-54
2022/04/04 06:42:14;;;;;;;7.80;4.05;;;;;;;11.48;100.00;97911.59;5131527;28;20051;-54
2022/04/04 06:44:40;;;;;;;22.90;4.53;;;;;;;12.06;100.00;97931.22;5133440;28;20047;-56
2022/04/04 06:47:06;;;;;;;10.45;4.57;;;;;;;12.60;100.00;97932.31;5126712;28;20051;-59
2022/04/04 06:49:33;;;;;;;9.63;4.13;;;;;;;12.88;100.00;97949.69;5119117;27;20055;-60
2022/04/04 06:51:59;;;;;;;12.93;4.22;;;;;;;12.89;95.95;97965.00;5112885;28;20067;-60
2022/04/04 06:54:27;;;;;;;7.63;4.00;;;;;;;13.30;96.58;97961.44;5113642;28;20055;-61
2022/04/04 06:56:55;;;;;;;8.25;4.40;;;;;;;13.52;93.40;97972.94;5118403;27;20100;-63
2022/04/04 06:59:22;;;;;;;5.93;3.80;;;;;;;13.37;90.87;97983.38;5132884;28;20043;-63
2022/04/04 07:01:49;;;;;;;12.82;4.90;;;;;;;13.06;91.61;97980.56;5132776;28;20051;-62
2022/04/04 07:04:16;;;;;;;12.07;4.35;;;;;;;13.12;91.82;97987.13;5116047;28;20055;-62
2022/04/04 07:06:43;;;;;;;10.05;4.32;;;;;;;13.50;89.86;97984.38;5112046;28;20064;-60
2022/04/04 07:09:09;;;;;;;7.38;4.25;;;;;;;13.67;89.03;97990.84;5111529;28;20048;-67
2022/04/04 07:11:35;;;;;;;16.75;4.95;;;;;;;14.77;91.98;97971.03;5113526;28;20051;-55
2022/04/04 07:14:03;;;;;;;9.15;4.75;;;;;;;15.47;81.31;97995.69;5112289;28;20052;-55
2022/04/04 07:16:29;;;;;;;7.32;4.85;;;;;;;15.40;81.02;98011.66;5111915;28;20055;-56
2022/04/04 07:18:55;;;;;;;9.55;5.60;;;;;;;15.06;77.02;98013.47;5112196;28;20055;-55
2022/04/04 07:21:23;;;;;;;11.93;5.35;;;;;;;14.54;77.34;98016.72;5104750;28;20096;-53
2022/04/04 07:23:50;;;;;;;8.35;4.93;;;;;;;14.37;77.53;98009.50;5111688;28;20051;-56
2022/04/04 07:26:19;;;;;;;10.05;5.43;;;;;;;14.48;78.82;98004.59;5111825;28;20047;-53
2022/04/04 07:28:46;;;;;;;14.65;8.77;;;;;;;14.38;77.23;98010.28;5111973;28;20055;-55
2022/04/04 07:31:13;;;;;;;10.05;7.40;;;;;;;14.51;76.31;98014.03;5110879;28;20498;-53
2022/04/04 07:33:39;;;;;;;20.70;14.35;;;;;;;14.39;76.16;98009.06;5111899;28;20052;-55
2022/04/04 07:36:06;;;;;;;12.30;5.85;;;;;;;14.17;78.33;97992.09;5111673;28;20062;-55
2022/04/04 07:38:32;;;;;;;12.95;7.38;;;;;;;14.12;77.10;98001.59;5125294;27;20052;-55
2022/04/04 07:40:59;;;;;;;10.35;6.70;;;;;;;14.48;75.45;98012.84;5131059;28;20046;-54
2022/04/04 07:43:26;;;;;;;9.85;7.05;;;;;;;14.54;72.33;98011.22;5117253;28;20052;-53
2022/04/04 07:45:52;;;;;;;8.65;4.97;;;;;;;14.42;69.03;98014.53;5111692;28;20048;-55
2022/04/04 07:48:19;;;;;;;11.10;5.28;;;;;;;14.53;68.99;98020.69;5111460;28;20051;-53
2022/04/04 07:50:45;;;;;;;9.93;4.75;;;;;;;14.55;69.05;98023.03;5111130;28;20563;-52
2022/04/04 07:53:12;;;;;;;15.15;4.40;;;;;;;14.70;68.65;98018.06;5112383;28;20059;-53
2022/04/04 07:55:40;;;;;;;7.88;4.95;;;;;;;14.56;67.15;98013.53;5114186;28;20058;-54
2022/04/04 07:58:07;;;;;;;14.55;7.72;;;;;;;14.68;65.50;98023.22;5132046;28;20486;-55
2022/04/04 08:00:33;;;;;;;9.32;4.97;;;;;;;14.93;66.13;98009.75;5131623;28;20047;-54
2022/04/04 08:02:59;;;;;;;7.40;4.00;;;;;;;14.96;65.09;98021.91;5133674;27;20108;-54
2022/04/04 08:05:26;;;;;;;5.45;4.43;;;;;;;15.03;66.30;98014.31;5111698;28;20058;-56
2022/04/04 08:07:52;;;;;;;7.45;4.68;;;;;;;15.11;66.54;98009.44;5111449;28;20502;-55
2022/04/04 08:10:19;;;;;;;10.85;4.50;;;;;;;14.86;65.20;98015.41;5112033;28;20434;-55
2022/04/04 08:12:46;;;;;;;6.43;4.15;;;;;;;14.66;65.91;98009.03;5110983;28;20059;-54
2022/04/04 08:15:13;;;;;;;9.88;4.50;;;;;;;14.38;67.58;98018.56;5110811;28;20048;-54
2022/04/04 08:17:40;;;;;;;8.18;3.85;;;;;;;14.03;67.46;98013.16;5111805;28;20056;-51
2022/04/04 08:20:08;;;;;;;6.55;3.72;;;;;;;14.22;64.40;98016.41;5110563;28;20138;-55
2022/04/04 08:22:39;;;;;;;6.75;3.67;;;;;;;14.15;65.15;98008.28;5110701;28;20063;-56
2022/04/04 08:25:06;;;;;;;7.95;3.63;;;;;;;14.38;64.66;98011.06;5118035;28;20055;-55
2022/04/04 08:27:32;;;;;;;8.57;3.90;;;;;;;14.59;64.54;98013.50;5130150;28;20076;-53
2022/04/04 08:29:59;;;;;;;10.70;3.67;;;;;;;14.28;65.46;98003.72;5131432;28;20455;-51
2022/04/04 08:32:25;;;;;;;8.73;4.57;;;;;;;14.05;65.64;98009.97;5118705;28;20057;-55
2022/04/04 08:34:52;;;;;;;11.93;3.75;;;;;;;14.36;64.47;98005.16;5128302;27;20051;-55
2022/04/04 08:37:18;;;;;;;6.90;3.80;;;;;;;14.56;66.24;98006.06;5119407;27;20097;-56
2022/04/04 08:39:47;;;;;;;6.68;3.90;;;;;;;14.36;66.81;97996.91;5110595;28;20582;-52
2022/04/04 08:42:16;;;;;;;8.98;3.65;;;;;;;14.24;67.05;97995.53;5110345;28;20048;-52
2022/04/04 08:44:44;;;;;;;6.53;5.10;;;;;;;14.22;66.09;97988.84;5110702;28;20055;-53
2022/04/04 08:47:10;;;;;;;7.30;3.88;;;;;;;14.33;65.17;97986.72;5116238;28;20101;-56
2022/04/04 08:49:37;;;;;;;11.63;6.75;;;;;;;14.40;64.27;98005.91;5130957;28;20051;-56
2022/04/04 08:52:04;;;;;;;5.55;3.63;;;;;;;14.38;65.72;97989.00;5117047;28;20044;-55
2022/04/04 08:54:30;;;;;;;6.38;3.30;;;;;;;14.70;65.55;97994.00;5122381;27;20510;-53
2022/04/04 08:56:56;;;;;;;8.98;3.22;;;;;;;14.47;64.66;97988.47;5110770;28;20047;-55
2022/04/04 08:59:22;;;;;;;7.75;3.08;;;;;;;14.84;65.06;97987.47;5110374;28;20535;-55
2022/04/04 09:01:49;;;;;;;9.15;3.25;;;;;;;14.25;63.14;97986.03;5110393;28;20043;-55
2022/04/04 09:04:16;;;;;;;6.57;3.67;;;;;;;13.69;65.92;97990.41;5110091;28;20059;-54
2022/04/04 09:06:51;;;;;;;3.50;2.75;;;;;;;13.63;67.67;97968.88;5110374;28;20426;-56
2022/04/04 09:09:24;;;;;;;5.50;2.45;;;;;;;12.99;65.14;97980.59;5110122;28;20089;-55
2022/04/04 09:12:05;;;;;;;7.28;3.45;;;;;;;12.87;68.09;97959.13;5110071;28;20047;-57
2022/04/04 09:14:35;;;;;;;9.60;3.10;;;;;;;12.46;70.16;97965.41;5109862;28;20055;-56
2022/04/04 09:17:02;;;;;;;4.35;2.42;;;;;;;11.77;70.61;97967.88;5110029;28;20416;-56
2022/04/04 09:19:29;;;;;;;4.68;2.20;;;;;;;11.42;69.76;97948.84;5109971;28;20054;-53
2022/04/04 09:21:57;;;;;;;6.43;2.38;;;;;;;10.54;74.38;97940.53;5110026;28;20113;-55
2022/04/04 09:24:42;;;;;;;4.75;2.67;;;;;;;9.96;77.06;97938.97;5110020;28;20054;-55
2022/04/04 09:27:13;;;;;;;4.03;2.70;;;;;;;9.75;83.02;97921.34;5113257;27;20048;-55
2022/04/04 09:29:43;;;;;;;4.90;2.72;;;;;;;10.06;80.11;97911.59;5120038;27;20051;-55
2022/04/04 09:32:12;;;;;;;4.10;2.78;;;;;;;10.88;81.95;97907.94;5121468;27;20046;-55
2022/04/04 09:35:01;;;;;;;3.45;2.50;;;;;;;11.11;74.57;97918.44;5118030;27;20051;-55
2022/04/04 09:37:31;;;;;;;7.45;2.70;;;;;;;10.22;78.30;97913.16;5105627;28;20101;-54
2022/04/04 09:40:09;;;;;;;11.60;3.65;;;;;;;9.76;80.37;97919.41;5109745;28;20047;-55
2022/04/04 09:42:35;;;;;;;7.55;2.90;;;;;;;10.18;82.05;97899.47;5120436;27;20096;-56
2022/04/04 09:45:03;;;;;;;4.47;2.30;;;;;;;10.66;81.31;97893.50;5149002;27;20055;-54
2022/04/04 09:47:49;;;;;;;7.07;2.30;;;;;;;10.21;75.33;97906.88;5145368;27;20107;-55
2022/04/04 09:50:35;;;;;;;6.05;3.78;;;;;;;9.54;77.83;97904.91;5130256;28;20066;-55
2022/04/04 09:53:04;;;;;;;4.55;2.58;;;;;;;8.95;79.81;97897.72;5130311;27;20096;-55
2022/04/04 09:55:32;;;;;;;12.45;2.70;;;;;;;8.60;82.50;97886.66;5133691;28;20047;-55
2022/04/04 09:58:00;;;;;;;4.40;2.65;;;;;;;8.86;83.83;97883.63;5133682;28;20085;-52
2022/04/04 10:00:26;;;;;;;8.63;2.60;;;;;;;9.49;82.02;97886.91;5145625;27;20047;-53
2022/04/04 10:02:55;;;;;;;5.82;3.13;;;;;;;9.97;79.92;97874.84;5154464;27;20057;-55
2022/04/04 10:05:23;;;;;;;5.18;1.95;;;;;;;9.89;78.49;97885.00;5154113;27;20050;-56
2022/04/04 10:07:52;;;;;;;3.97;2.13;;;;;;;9.79;77.56;97883.81;5154301;27;20051;-53
2022/04/04 10:10:20;;;;;;;4.68;2.15;;;;;;;10.45;75.86;97879.88;5154301;27;20591;-55
2022/04/04 10:12:49;;;;;;;2.35;1.88;;;;;;;10.70;76.23;97885.31;5154399;27;20050;-56
2022/04/04 10:15:15;;;;;;;2.80;2.03;;;;;;;10.29;74.22;97889.28;5154020;27;20050;-55
2022/04/04 10:17:43;;;;;;;7.13;2.53;;;;;;;9.68;76.03;97895.94;5154291;27;20042;-54
2022/04/04 10:20:12;;;;;;;6.47;2.33;;;;;;;9.38;81.80;97877.91;5124800;27;20081;-54
2022/04/04 10:22:39;;;;;;;6.05;2.78;;;;;;;9.25;79.19;97872.03;5113582;28;20051;-56
2022/04/04 10:25:07;;;;;;;4.70;2.78;;;;;;;9.18;82.63;97864.59;5112741;28;20108;-56
2022/04/04 10:27:34;;;;;;;3.78;2.10;;;;;;;9.25;79.89;97865.78;5112329;28;20071;-56
2022/04/04 10:30:04;;;;;;;10.27;3.85;;;;;;;9.39;81.20;97854.84;5112465;28;20048;-54
2022/04/04 10:32:32;;;;;;;7.13;2.28;;;;;;;9.85;79.20;97856.84;5112290;28;20051;-54
2022/04/04 10:35:10;;;;;;;5.15;2.42;;;;;;;10.22;77.15;97863.84;5112307;28;20055;-55
2022/04/04 10:37:43;;;;;;;5.90;2.45;;;;;;;10.65;76.49;97855.56;5111983;28;20055;-56
2022/04/04 10:40:18;;;;;;;9.20;2.15;;;;;;;10.90;77.16;97858.22;5123929;28;20566;-56
2022/04/04 10:42:46;;;;;;;3.20;2.20;;;;;;;11.05;73.05;97865.16;5132864;28;20051;-54
2022/04/04 10:45:15;;;;;;;5.55;2.15;;;;;;;11.35;74.86;97861.09;5133002;28;20069;-53
2022/04/04 10:47:42;;;;;;;4.57;2.22;;;;;;;11.39;72.16;97853.59;5132639;28;20111;-54
2022/04/04 10:50:22;;;;;;;7.38;2.85;;;;;;;11.47;72.68;97861.41;5132367;28;20141;-54
2022/04/04 10:52:49;;;;;;;2.05;1.88;;;;;;;11.06;71.99;97862.03;5132979;28;20051;-54
2022/04/04 10:55:40;;;;;;;5.35;2.78;;;;;;;10.56;72.88;97862.25;5127866;27;20060;-55
2022/04/04 10:58:13;;;;;;;13.50;3.38;;;;;;;10.44;76.52;97843.50;5109187;28;20130;-55
2022/04/04 11:00:55;;;;;;;12.68;3.03;;;;;;;11.01;76.34;97835.03;5112424;28;20051;-55
2022/04/04 11:03:27;;;;;;;8.18;2.67;;;;;;;11.08;73.75;97845.19;5112292;28;20058;-56
2022/04/04 11:09:04;;;;;;;5.38;2.35;;;;;;;10.09;73.95;97838.81;5132605;28;20093;-56
2022/04/04 11:11:54;;;;;;;3.17;2.08;;;;;;;9.92;74.88;97839.63;5132599;28;20051;-55
2022/04/04 11:14:43;;;;;;;4.25;2.20;;;;;;;9.74;75.66;97832.22;5112327;28;20051;-57
2022/04/04 11:17:36;;;;;;;9.82;2.88;;;;;;;9.41;76.52;97823.22;5112193;28;20055;-57
2022/04/04 11:20:10;;;;;;;13.60;2.90;;;;;;;9.24;76.59;97828.69;5111815;28;20077;-51
2022/04/04 11:22:42;;;;;;;3.70;2.45;;;;;;;9.19;74.97;97816.94;5126111;28;20047;-53
2022/04/04 11:25:14;;;;;;;4.90;2.00;;;;;;;9.12;75.40;97814.19;5131983;28;20055;-56
2022/04/04 11:27:41;;;;;;;5.88;2.17;;;;;;;8.77;74.15;97812.16;5132317;27;20413;-54
2022/04/04 11:30:10;;;;;;;4.00;2.28;;;;;;;8.76;77.58;97807.84;5112936;28;20052;-54
2022/04/04 11:32:40;;;;;;;4.13;2.30;;;;;;;8.89;78.83;97814.53;5111560;28;20192;-55
2022/04/04 11:35:11;;;;;;;3.60;2.45;;;;;;;9.05;79.50;97807.94;5111460;28;20044;-54
2022/04/04 11:37:44;;;;;;;3.95;2.65;;;;;;;8.79;80.95;97795.38;5123589;28;20055;-55
2022/04/04 11:40:14;;;;;;;3.90;2.78;;;;;;;8.74;83.41;97793.81;5131652;28;20046;-54